createdAt,value
2018-07-28T00:00:19.294Z,22.4
2018-07-28T00:01:21.339Z,22.4
2018-07-28T00:02:23.392Z,22.4
2018-07-28T00:03:25.428Z,22.5
2018-07-28T00:04:27.486Z,22.4
2018-07-28T00:05:29.925Z,22.4
2018-07-28T00:06:32.564Z,22.3
2018-07-28T00:07:34.609Z,22.3
2018-07-28T00:08:36.669Z,22.3
2018-07-28T00:09:38.722Z,22.3
2018-07-28T00:10:41.336Z,22.4
2018-07-28T00:11:43.383Z,22.3
2018-07-28T00:12:45.423Z,22.3
2018-07-28T00:13:47.469Z,22.3
2018-07-28T00:14:49.813Z,22.3
2018-07-28T00:15:51.847Z,22.3
2018-07-28T00:16:53.901Z,22.3
2018-07-28T00:17:55.947Z,22.3
2018-07-28T00:18:58.381Z,22.3
2018-07-28T00:20:00.437Z,22.3
2018-07-28T00:21:03.260Z,22.3
2018-07-28T00:22:05.306Z,22.3
2018-07-28T00:23:07.733Z,22.2
2018-07-28T00:24:10.078Z,22.1
2018-07-28T00:25:12.393Z,22.1
2018-07-28T00:26:14.439Z,22.1
2018-07-28T00:27:16.488Z,22.2
2018-07-28T00:28:18.523Z,22.1
2018-07-28T00:29:20.964Z,22.1
2018-07-28T00:30:23.012Z,22.2
2018-07-28T00:31:25.350Z,22.1
2018-07-28T00:32:27.683Z,22.1
2018-07-28T00:33:30.027Z,22.1
2018-07-28T00:34:32.072Z,22.2
2018-07-28T00:35:34.111Z,22.2
2018-07-28T00:36:36.166Z,22.2
2018-07-28T00:37:38.199Z,22.1
2018-07-28T00:38:40.524Z,22.2
2018-07-28T00:39:42.575Z,22.1
2018-07-28T00:40:45.003Z,22.1
2018-07-28T00:41:47.039Z,22.1
2018-07-28T00:42:49.083Z,22.1
2018-07-28T00:43:51.129Z,22.1
2018-07-28T00:44:53.475Z,22
2018-07-28T00:45:55.815Z,22
2018-07-28T00:46:57.859Z,22
2018-07-28T00:48:00.289Z,22
2018-07-28T00:49:02.344Z,22
2018-07-28T00:50:04.379Z,22
2018-07-28T00:51:06.427Z,22
2018-07-28T00:52:08.473Z,22
2018-07-28T00:53:10.508Z,22.1
2018-07-28T00:54:12.568Z,22
2018-07-28T00:55:14.895Z,22
2018-07-28T00:56:16.950Z,22
2018-07-28T00:57:18.989Z,22
2018-07-28T00:58:21.315Z,22
2018-07-28T00:59:23.356Z,22
2018-07-28T01:00:25.415Z,22
2018-07-28T01:01:27.449Z,22
2018-07-28T01:02:29.507Z,22
2018-07-28T01:03:31.553Z,22
2018-07-28T01:04:33.603Z,22
2018-07-28T01:05:35.642Z,22
2018-07-28T01:06:37.696Z,22
2018-07-28T01:07:39.740Z,22
2018-07-28T01:08:42.067Z,22
2018-07-28T01:09:44.125Z,22
2018-07-28T01:10:46.445Z,22
2018-07-28T01:11:49.055Z,22
2018-07-28T01:12:51.106Z,21.9
2018-07-28T01:13:53.152Z,21.9
2018-07-28T01:14:55.189Z,21.8
2018-07-28T01:15:57.518Z,21.8
2018-07-28T01:16:59.849Z,21.8
2018-07-28T01:18:01.903Z,21.9
2018-07-28T01:19:03.961Z,21.9
2018-07-28T01:20:06.396Z,21.9
2018-07-28T01:21:08.436Z,21.9
2018-07-28T01:22:10.489Z,21.8
2018-07-28T01:23:12.808Z,21.8
2018-07-28T01:24:15.150Z,21.8
2018-07-28T01:25:17.191Z,21.8
2018-07-28T01:26:19.608Z,21.7
2018-07-28T01:27:22.044Z,21.8
2018-07-28T01:28:24.092Z,21.8
2018-07-28T01:29:26.426Z,21.8
2018-07-28T01:30:28.459Z,21.8
2018-07-28T01:31:30.516Z,21.7
2018-07-28T01:32:32.561Z,21.8
2018-07-28T01:33:34.599Z,21.8
2018-07-28T01:34:36.642Z,21.8
2018-07-28T01:35:39.387Z,21.8
2018-07-28T01:36:41.433Z,21.7
2018-07-28T01:37:43.869Z,21.8
2018-07-28T01:38:46.192Z,21.6
2018-07-28T01:39:48.247Z,21.7
2018-07-28T01:40:50.679Z,21.7
2018-07-28T01:41:52.718Z,21.7
2018-07-28T01:42:54.774Z,21.7
2018-07-28T01:43:56.809Z,21.7
2018-07-28T01:44:58.854Z,21.7
2018-07-28T01:46:01.291Z,21.6
2018-07-28T01:47:03.336Z,21.7
2018-07-28T01:48:05.758Z,21.7
2018-07-28T01:49:07.857Z,21.6
2018-07-28T01:50:09.902Z,21.6
2018-07-28T01:51:11.951Z,21.7
2018-07-28T01:52:14.004Z,21.7
2018-07-28T01:53:16.045Z,21.7
2018-07-28T01:54:18.087Z,21.7
2018-07-28T01:55:20.144Z,21.7
2018-07-28T01:56:22.183Z,21.7
2018-07-28T01:57:24.227Z,21.8
2018-07-28T01:58:26.272Z,21.6
2018-07-28T01:59:28.316Z,21.7
2018-07-28T02:00:30.648Z,21.8
2018-07-28T02:01:32.694Z,21.7
2018-07-28T02:02:34.744Z,21.7
2018-07-28T02:03:36.779Z,21.7
2018-07-28T02:04:38.832Z,21.6
2018-07-28T02:05:40.874Z,21.6
2018-07-28T02:06:42.917Z,21.6
2018-07-28T02:07:44.971Z,21.5
2018-07-28T02:08:47.004Z,21.5
2018-07-28T02:09:49.046Z,21.5
2018-07-28T02:10:51.085Z,21.4
2018-07-28T02:11:53.140Z,21.5
2018-07-28T02:12:55.460Z,21.4
2018-07-28T02:13:57.502Z,21.5
2018-07-28T02:14:59.551Z,21.5
2018-07-28T02:16:01.898Z,21.5
2018-07-28T02:17:03.934Z,21.4
2018-07-28T02:18:05.977Z,21.4
2018-07-28T02:19:08.028Z,21.4
2018-07-28T02:20:10.072Z,21.3
2018-07-28T02:21:12.109Z,21.4
2018-07-28T02:22:14.156Z,21.4
2018-07-28T02:23:16.198Z,21.3
2018-07-28T02:24:18.244Z,21.2
2018-07-28T02:25:20.626Z,21.3
2018-07-28T02:26:22.672Z,21.3
2018-07-28T02:27:25.102Z,21.3
2018-07-28T02:28:27.154Z,21.2
2018-07-28T02:29:29.194Z,21.1
2018-07-28T02:30:31.243Z,21.1
2018-07-28T02:31:33.588Z,21.1
2018-07-28T02:32:36.006Z,21.1
2018-07-28T02:33:38.057Z,21.1
2018-07-28T02:34:40.693Z,21.1
2018-07-28T02:35:42.740Z,21.2
2018-07-28T02:36:45.368Z,21.1
2018-07-28T02:37:48.121Z,21.2
2018-07-28T02:38:50.164Z,21.2
2018-07-28T02:39:52.594Z,21.2
2018-07-28T02:40:54.946Z,21.3
2018-07-28T02:41:56.984Z,21.3
2018-07-28T02:42:59.028Z,21.2
2018-07-28T02:44:01.067Z,21.2
2018-07-28T02:45:03.125Z,21.2
2018-07-28T02:46:06.019Z,21.2
2018-07-28T02:47:09.333Z,21.2
2018-07-28T02:48:11.389Z,21.2
2018-07-28T02:49:14.004Z,21.2
2018-07-28T02:50:16.447Z,21.2
2018-07-28T02:51:19.060Z,21.2
2018-07-28T02:52:21.100Z,21.2
2018-07-28T02:53:23.464Z,21.2
2018-07-28T02:54:25.796Z,21.1
2018-07-28T02:55:27.840Z,21.1
2018-07-28T02:56:30.278Z,21.1
2018-07-28T02:57:32.707Z,21.2
2018-07-28T02:58:35.030Z,21.2
2018-07-28T02:59:37.076Z,21.1
2018-07-28T03:00:40.009Z,21.2
2018-07-28T03:01:42.041Z,21.1
2018-07-28T03:02:44.090Z,21
2018-07-28T03:03:46.138Z,21
2018-07-28T03:04:48.752Z,21
2018-07-28T03:05:51.092Z,21.1
2018-07-28T03:06:53.419Z,21.1
2018-07-28T03:07:56.150Z,21
2018-07-28T03:08:58.966Z,21
2018-07-28T03:10:01.024Z,21.1
2018-07-28T03:11:03.058Z,21.1
2018-07-28T03:12:05.397Z,21
2018-07-28T03:13:07.828Z,21
2018-07-28T03:14:10.151Z,21
2018-07-28T03:15:12.494Z,21
2018-07-28T03:16:14.924Z,21
2018-07-28T03:17:17.262Z,21
2018-07-28T03:18:19.576Z,21
2018-07-28T03:19:21.632Z,21
2018-07-28T03:20:23.678Z,21
2018-07-28T03:21:26.015Z,21
2018-07-28T03:22:28.748Z,21.1
2018-07-28T03:23:31.365Z,21
2018-07-28T03:24:33.408Z,21
2018-07-28T03:25:35.760Z,21.1
2018-07-28T03:26:37.807Z,21
2018-07-28T03:27:40.123Z,21.1
2018-07-28T03:28:42.452Z,21.1
2018-07-28T03:29:44.883Z,21.1
2018-07-28T03:30:46.927Z,21.1
2018-07-28T03:31:48.967Z,21.1
2018-07-28T03:32:51.288Z,21
2018-07-28T03:33:53.339Z,21
2018-07-28T03:34:55.373Z,21.1
2018-07-28T03:35:57.422Z,21.1
2018-07-28T03:36:59.462Z,21.1
2018-07-28T03:38:01.508Z,21.1
2018-07-28T03:39:03.565Z,21.1
2018-07-28T03:40:05.903Z,21.1
2018-07-28T03:41:07.951Z,21.1
2018-07-28T03:42:10.273Z,21.1
2018-07-28T03:43:12.330Z,21.1
2018-07-28T03:44:14.362Z,21.1
2018-07-28T03:45:16.408Z,21.1
2018-07-28T03:46:18.748Z,21.1
2018-07-28T03:47:20.782Z,21.1
2018-07-28T03:48:22.841Z,21.2
2018-07-28T03:49:24.880Z,21.2
2018-07-28T03:50:26.927Z,21.1
2018-07-28T03:51:28.959Z,21.1
2018-07-28T03:52:31.016Z,21.1
2018-07-28T03:53:33.446Z,21.1
2018-07-28T03:54:35.495Z,21.1
2018-07-28T03:55:37.551Z,21.1
2018-07-28T03:56:39.959Z,21
2018-07-28T03:57:42.006Z,21.1
2018-07-28T03:58:44.052Z,21
2018-07-28T03:59:46.098Z,21.1
2018-07-28T04:00:48.416Z,21.1
2018-07-28T04:01:50.459Z,21.1
2018-07-28T04:02:52.506Z,21.1
2018-07-28T04:03:54.549Z,21.1
2018-07-28T04:04:56.604Z,21.1
2018-07-28T04:05:59.038Z,21.1
2018-07-28T04:07:01.078Z,21.1
2018-07-28T04:08:03.137Z,21.1
2018-07-28T04:09:05.182Z,21.1
2018-07-28T04:10:07.219Z,21.1
2018-07-28T04:11:09.573Z,21.1
2018-07-28T04:12:11.607Z,21.1
2018-07-28T04:13:13.657Z,21.1
2018-07-28T04:14:15.734Z,21.1
2018-07-28T04:15:18.119Z,21.1
2018-07-28T04:16:20.390Z,21.1
2018-07-28T04:17:22.455Z,21.2
2018-07-28T04:18:24.498Z,21.1
2018-07-28T04:19:26.542Z,21.1
2018-07-28T04:20:28.594Z,21.1
2018-07-28T04:21:30.915Z,21.1
2018-07-28T04:22:32.959Z,21.1
2018-07-28T04:23:34.999Z,21.1
2018-07-28T04:24:37.050Z,21.1
2018-07-28T04:25:39.083Z,21.1
2018-07-28T04:26:41.132Z,21.2
2018-07-28T04:27:43.182Z,21.2
2018-07-28T04:28:45.500Z,21.3
2018-07-28T04:29:47.556Z,21.3
2018-07-28T04:30:49.883Z,21.3
2018-07-28T04:31:52.217Z,21.3
2018-07-28T04:32:54.536Z,21.3
2018-07-28T04:33:57.441Z,21.3
2018-07-28T04:34:59.483Z,21.3
2018-07-28T04:36:01.529Z,21.3
2018-07-28T04:37:03.979Z,21.4
2018-07-28T04:38:05.956Z,21.4
2018-07-28T04:39:07.998Z,21.4
2018-07-28T04:40:10.358Z,21.5
2018-07-28T04:41:12.399Z,21.5
2018-07-28T04:42:14.449Z,21.5
2018-07-28T04:43:16.493Z,21.5
2018-07-28T04:44:18.540Z,21.5
2018-07-28T04:45:20.575Z,21.5
2018-07-28T04:46:22.625Z,21.4
2018-07-28T04:47:24.669Z,21.4
2018-07-28T04:48:27.009Z,21.5
2018-07-28T04:49:29.045Z,21.5
2018-07-28T04:50:31.390Z,21.5
2018-07-28T04:51:33.437Z,21.6
2018-07-28T04:52:35.765Z,21.6
2018-07-28T04:53:38.209Z,21.6
2018-07-28T04:54:40.244Z,21.6
2018-07-28T04:55:42.289Z,21.6
2018-07-28T04:56:44.328Z,21.6
2018-07-28T04:57:46.381Z,21.8
2018-07-28T04:58:48.415Z,21.8
2018-07-28T04:59:50.459Z,21.9
2018-07-28T05:00:52.506Z,21.9
2018-07-28T05:01:54.539Z,21.8
2018-07-28T05:02:56.596Z,21.9
2018-07-28T05:03:58.926Z,21.9
2018-07-28T05:05:00.968Z,21.9
2018-07-28T05:06:03.298Z,21.9
2018-07-28T05:07:05.357Z,22
2018-07-28T05:08:07.686Z,22
2018-07-28T05:09:09.729Z,22
2018-07-28T05:10:11.773Z,22
2018-07-28T05:11:13.809Z,22
2018-07-28T05:12:15.857Z,22
2018-07-28T05:13:17.903Z,22
2018-07-28T05:14:19.940Z,22.1
2018-07-28T05:15:21.990Z,22.1
2018-07-28T05:16:24.032Z,22.1
2018-07-28T05:17:26.080Z,22.2
2018-07-28T05:18:28.418Z,22.3
2018-07-28T05:19:30.455Z,22.3
2018-07-28T05:20:32.502Z,22.3
2018-07-28T05:21:34.541Z,22.4
2018-07-28T05:22:36.978Z,22.4
2018-07-28T05:23:39.062Z,22.4
2018-07-28T05:24:41.050Z,22.4
2018-07-28T05:25:43.097Z,22.4
2018-07-28T05:26:45.130Z,22.5
2018-07-28T05:27:47.183Z,22.4
2018-07-28T05:28:49.660Z,22.5
2018-07-28T05:29:51.713Z,22.5
2018-07-28T05:30:53.747Z,22.5
2018-07-28T05:31:55.799Z,22.6
2018-07-28T05:32:58.125Z,22.6
2018-07-28T05:34:00.455Z,22.7
2018-07-28T05:35:02.799Z,22.7
2018-07-28T05:36:05.119Z,22.7
2018-07-28T05:37:07.184Z,22.8
2018-07-28T05:38:09.213Z,22.7
2018-07-28T05:39:11.554Z,22.8
2018-07-28T05:40:13.590Z,22.7
2018-07-28T05:41:15.914Z,22.8
2018-07-28T05:42:17.967Z,22.8
2018-07-28T05:43:20.012Z,22.8
2018-07-28T05:44:22.064Z,22.9
2018-07-28T05:45:24.826Z,22.9
2018-07-28T05:46:26.868Z,22.9
2018-07-28T05:47:28.923Z,22.9
2018-07-28T05:48:30.961Z,22.9
2018-07-28T05:49:33.007Z,22.9
2018-07-28T05:50:35.050Z,22.9
2018-07-28T05:51:37.470Z,22.9
2018-07-28T05:52:39.521Z,22.9
2018-07-28T05:53:41.566Z,22.9
2018-07-28T05:54:43.616Z,23
2018-07-28T05:55:45.650Z,23
2018-07-28T05:56:47.708Z,23
2018-07-28T05:57:49.755Z,23
2018-07-28T05:58:51.798Z,23.1
2018-07-28T05:59:53.844Z,23.2
2018-07-28T06:00:56.193Z,23.2
2018-07-28T06:01:58.236Z,23.2
2018-07-28T06:03:00.286Z,23.2
2018-07-28T06:04:02.709Z,23.3
2018-07-28T06:05:05.148Z,23.3
2018-07-28T06:06:07.498Z,23.3
2018-07-28T06:07:09.537Z,23.3
2018-07-28T06:08:11.593Z,23.4
2018-07-28T06:09:13.915Z,23.4
2018-07-28T06:10:16.246Z,23.5
2018-07-28T06:11:18.296Z,23.6
2018-07-28T06:12:20.341Z,23.6
2018-07-28T06:13:22.378Z,23.7
2018-07-28T06:14:24.809Z,23.8
2018-07-28T06:15:26.857Z,23.8
2018-07-28T06:16:28.894Z,23.9
2018-07-28T06:17:30.949Z,23.9
2018-07-28T06:18:32.993Z,23.9
2018-07-28T06:19:35.033Z,24
2018-07-28T06:20:37.094Z,24
2018-07-28T06:21:39.427Z,24
2018-07-28T06:22:41.472Z,24
2018-07-28T06:23:43.811Z,24
2018-07-28T06:24:46.138Z,24
2018-07-28T06:25:48.183Z,24.1
2018-07-28T06:26:50.614Z,24.1
2018-07-28T06:27:53.122Z,24.1
2018-07-28T06:28:55.399Z,24.2
2018-07-28T06:29:57.456Z,24.3
2018-07-28T06:30:59.787Z,24.4
2018-07-28T06:32:02.618Z,24.4
2018-07-28T06:33:04.571Z,24.4
2018-07-28T06:34:06.606Z,24.5
2018-07-28T06:35:08.660Z,24.5
2018-07-28T06:36:10.992Z,24.6
2018-07-28T06:37:13.049Z,24.7
2018-07-28T06:38:15.090Z,24.7
2018-07-28T06:39:17.136Z,24.7
2018-07-28T06:40:19.176Z,24.7
2018-07-28T06:41:21.236Z,24.8
2018-07-28T06:42:23.556Z,24.7
2018-07-28T06:43:25.599Z,24.7
2018-07-28T06:44:27.651Z,24.8
2018-07-28T06:45:29.695Z,24.8
2018-07-28T06:46:32.114Z,24.8
2018-07-28T06:47:34.839Z,24.8
2018-07-28T06:48:36.886Z,24.8
2018-07-28T06:49:38.944Z,24.8
2018-07-28T06:50:40.993Z,24.8
2018-07-28T06:51:43.042Z,24.9
2018-07-28T06:52:46.001Z,25
2018-07-28T06:53:49.122Z,25
2018-07-28T06:54:51.566Z,25
2018-07-28T06:55:53.618Z,25.1
2018-07-28T06:56:55.683Z,25.1
2018-07-28T06:57:57.834Z,25.2
2018-07-28T06:58:59.889Z,25.3
2018-07-28T07:00:02.128Z,25.3
2018-07-28T07:01:05.131Z,25.4
2018-07-28T07:02:07.730Z,25.4
2018-07-28T07:03:09.790Z,25.3
2018-07-28T07:04:11.842Z,25.3
2018-07-28T07:05:13.890Z,25.4
2018-07-28T07:06:15.952Z,25.4
2018-07-28T07:07:18.378Z,25.5
2018-07-28T07:08:20.427Z,25.6
2018-07-28T07:09:22.470Z,25.6
2018-07-28T07:10:24.536Z,25.7
2018-07-28T07:11:26.571Z,25.7
2018-07-28T07:12:28.909Z,25.7
2018-07-28T07:13:30.966Z,25.8
2018-07-28T07:14:33.388Z,25.8
2018-07-28T07:15:35.726Z,25.9
2018-07-28T07:16:37.775Z,25.9
2018-07-28T07:17:39.831Z,26
2018-07-28T07:18:41.890Z,26
2018-07-28T07:19:44.304Z,26.1
2018-07-28T07:20:46.353Z,26.2
2018-07-28T07:21:48.405Z,26.2
2018-07-28T07:22:50.739Z,26.2
2018-07-28T07:23:53.088Z,26.3
2018-07-28T07:24:55.137Z,26.3
2018-07-28T07:25:57.486Z,26.2
2018-07-28T07:26:59.545Z,26.3
2018-07-28T07:28:01.595Z,26.4
2018-07-28T07:29:03.642Z,26.4
2018-07-28T07:30:05.693Z,26.5
2018-07-28T07:31:07.736Z,26.5
2018-07-28T07:32:09.791Z,26.5
2018-07-28T07:33:11.839Z,26.6
2018-07-28T07:34:14.279Z,26.6
2018-07-28T07:35:16.325Z,26.7
2018-07-28T07:36:18.559Z,26.7
2018-07-28T07:37:20.435Z,26.8
2018-07-28T07:38:22.486Z,26.8
2018-07-28T07:39:24.546Z,26.9
2018-07-28T07:40:26.584Z,26.9
2018-07-28T07:41:28.635Z,26.9
2018-07-28T07:42:30.682Z,26.9
2018-07-28T07:43:32.745Z,26.9
2018-07-28T07:44:34.785Z,27
2018-07-28T07:45:36.840Z,27
2018-07-28T07:46:38.929Z,27
2018-07-28T07:47:41.088Z,27
2018-07-28T07:48:43.001Z,27.1
2018-07-28T07:49:45.050Z,27.1
2018-07-28T07:50:47.096Z,27.1
2018-07-28T07:51:49.151Z,27
2018-07-28T07:52:51.211Z,27
2018-07-28T07:53:53.933Z,27.2
2018-07-28T07:54:55.970Z,27.2
2018-07-28T07:55:58.407Z,27.2
2018-07-28T07:57:00.444Z,27.2
2018-07-28T07:58:02.781Z,27.2
2018-07-28T07:59:05.117Z,27.3
2018-07-28T08:00:07.542Z,27.4
2018-07-28T08:01:09.598Z,27.5
2018-07-28T08:02:11.653Z,27.5
2018-07-28T08:03:14.089Z,27.7
2018-07-28T08:04:16.151Z,27.6
2018-07-28T08:05:18.598Z,27.7
2018-07-28T08:06:20.679Z,27.7
2018-07-28T08:07:23.052Z,27.8
2018-07-28T08:08:25.110Z,27.8
2018-07-28T08:09:27.439Z,27.8
2018-07-28T08:10:29.491Z,27.9
2018-07-28T08:11:31.543Z,27.9
2018-07-28T08:12:34.203Z,28
2018-07-28T08:13:36.255Z,28
2018-07-28T08:14:38.303Z,28
2018-07-28T08:15:40.362Z,28.1
2018-07-28T08:16:42.398Z,28.2
2018-07-28T08:17:44.459Z,28.1
2018-07-28T08:18:46.514Z,28
2018-07-28T08:19:48.563Z,28.1
2018-07-28T08:20:51.320Z,28.3
2018-07-28T08:21:53.358Z,28.3
2018-07-28T08:22:55.417Z,28.4
2018-07-28T08:23:57.472Z,28.4
2018-07-28T08:24:59.805Z,28.2
2018-07-28T08:26:01.848Z,28.2
2018-07-28T08:27:03.898Z,28.4
2018-07-28T08:28:05.946Z,28.3
2018-07-28T08:29:07.994Z,28.5
2018-07-28T08:30:10.054Z,28.5
2018-07-28T08:31:12.105Z,28.6
2018-07-28T08:32:14.164Z,28.8
2018-07-28T08:33:16.583Z,28.9
2018-07-28T08:34:18.992Z,28.9
2018-07-28T08:35:21.042Z,29
2018-07-28T08:36:23.096Z,29
2018-07-28T08:37:25.159Z,28.9
2018-07-28T08:38:27.495Z,29
2018-07-28T08:39:29.551Z,28.9
2018-07-28T08:40:31.595Z,29
2018-07-28T08:41:34.042Z,29.1
2018-07-28T08:42:36.083Z,29.3
2018-07-28T08:43:38.421Z,29.4
2018-07-28T08:44:40.482Z,29.5
2018-07-28T08:45:42.522Z,29.7
2018-07-28T08:46:44.889Z,29.7
2018-07-28T08:47:46.938Z,29.8
2018-07-28T08:48:49.000Z,29.9
2018-07-28T08:49:51.043Z,29.8
2018-07-28T08:50:53.101Z,29.8
2018-07-28T08:51:55.150Z,29.8
2018-07-28T08:52:57.194Z,30.1
2018-07-28T08:53:59.258Z,30.2
2018-07-28T08:55:01.600Z,30
2018-07-28T08:56:03.653Z,30
2018-07-28T08:57:05.707Z,30
2018-07-28T08:58:07.843Z,30.3
2018-07-28T08:59:10.280Z,30.7
2018-07-28T09:00:12.355Z,30.8
2018-07-28T09:01:14.879Z,30.7
2018-07-28T09:02:16.936Z,30.6
2018-07-28T09:03:19.000Z,30.6
2018-07-28T09:04:21.053Z,30.9
2018-07-28T09:05:23.110Z,30.8
2018-07-28T09:06:25.454Z,30.8
2018-07-28T09:07:27.504Z,31
2018-07-28T09:08:29.561Z,30.8
2018-07-28T09:09:32.007Z,30.7
2018-07-28T09:10:34.126Z,30.7
2018-07-28T09:11:36.427Z,30.7
2018-07-28T09:12:38.478Z,30.7
2018-07-28T09:13:40.528Z,30.7
2018-07-28T09:14:42.595Z,30.8
2018-07-28T09:15:44.919Z,30.7
2018-07-28T09:16:46.973Z,31
2018-07-28T09:17:49.036Z,31.3
2018-07-28T09:18:51.358Z,31.3
2018-07-28T09:19:53.425Z,31.4
2018-07-28T09:20:55.785Z,31.4
2018-07-28T09:21:58.148Z,31.4
2018-07-28T09:23:00.478Z,31.5
2018-07-28T09:24:02.551Z,31.6
2018-07-28T09:25:04.906Z,31.4
2018-07-28T09:26:07.342Z,31.6
2018-07-28T09:27:09.403Z,31.6
2018-07-28T09:28:11.447Z,31.4
2018-07-28T09:29:13.501Z,31.6
2018-07-28T09:30:15.563Z,31.5
2018-07-28T09:31:17.620Z,31.4
2018-07-28T09:32:19.951Z,31.3
2018-07-28T09:33:22.007Z,31.5
2018-07-28T09:34:24.640Z,31.5
2018-07-28T09:35:26.696Z,31.7
2018-07-28T09:36:28.765Z,31.8
2018-07-28T09:37:30.828Z,31.9
2018-07-28T09:38:33.168Z,31.8
2018-07-28T09:39:35.230Z,31.8
2018-07-28T09:40:37.663Z,31.6
2018-07-28T09:41:39.719Z,31.8
2018-07-28T09:42:41.776Z,31.8
2018-07-28T09:43:43.817Z,31.7
2018-07-28T09:44:45.879Z,31.7
2018-07-28T09:45:47.941Z,31.6
2018-07-28T09:46:51.006Z,31.8
2018-07-28T09:47:53.054Z,31.8
2018-07-28T09:48:55.107Z,31.9
2018-07-28T09:49:57.160Z,31.8
2018-07-28T09:50:59.216Z,32
2018-07-28T09:52:01.263Z,32.2
2018-07-28T09:53:03.639Z,32.2
2018-07-28T09:54:05.695Z,32.4
2018-07-28T09:55:07.757Z,32.7
2018-07-28T09:56:09.822Z,32.5
2018-07-28T09:57:12.241Z,32.3
2018-07-28T09:58:14.298Z,32.2
2018-07-28T09:59:16.350Z,32.2
2018-07-28T10:00:18.810Z,32.2
2018-07-28T10:01:20.856Z,32.5
2018-07-28T10:02:22.917Z,32.9
2018-07-28T10:03:24.976Z,32.5
2018-07-28T10:04:27.036Z,32.5
2018-07-28T10:05:29.092Z,32.6
2018-07-28T10:06:31.141Z,32.3
2018-07-28T10:07:33.479Z,32.3
2018-07-28T10:08:35.536Z,32.5
2018-07-28T10:09:37.611Z,32.8
2018-07-28T10:10:39.953Z,32.6
2018-07-28T10:11:42.309Z,32.4
2018-07-28T10:12:44.382Z,32.3
2018-07-28T10:13:46.725Z,32.2
2018-07-28T10:14:49.072Z,32.4
2018-07-28T10:15:51.126Z,32.3
2018-07-28T10:16:53.174Z,32.6
2018-07-28T10:17:55.517Z,32.6
2018-07-28T10:18:57.574Z,32.7
2018-07-28T10:19:59.637Z,32.6
2018-07-28T10:21:01.692Z,32.9
2018-07-28T10:22:04.051Z,33
2018-07-28T10:23:07.158Z,32.8
2018-07-28T10:24:09.216Z,32.8
2018-07-28T10:25:11.287Z,33.1
2018-07-28T10:26:13.336Z,33
2018-07-28T10:27:15.395Z,33
2018-07-28T10:28:17.841Z,33
2018-07-28T10:29:19.904Z,33
2018-07-28T10:30:21.951Z,32.7
2018-07-28T10:31:24.016Z,32.6
2018-07-28T10:32:26.081Z,32.5
2018-07-28T10:33:28.131Z,32.2
2018-07-28T10:34:30.210Z,32.5
2018-07-28T10:35:32.282Z,32.3
2018-07-28T10:36:34.834Z,32.5
2018-07-28T10:37:36.900Z,32.8
2018-07-28T10:38:40.721Z,32.7
2018-07-28T10:39:42.797Z,32.6
2018-07-28T10:40:44.857Z,33
2018-07-28T10:41:46.919Z,33.2
2018-07-28T10:42:48.967Z,33.2
2018-07-28T10:43:51.026Z,33.2
2018-07-28T10:44:53.091Z,33.1
2018-07-28T10:45:55.142Z,33
2018-07-28T10:46:57.520Z,33
2018-07-28T10:47:59.580Z,33
2018-07-28T10:49:01.640Z,32.9
2018-07-28T10:50:03.720Z,32.8
2018-07-28T10:51:06.176Z,32.8
2018-07-28T10:52:08.231Z,33.3
2018-07-28T10:53:10.292Z,33.1
2018-07-28T10:54:12.358Z,33.1
2018-07-28T10:55:14.410Z,33.3
2018-07-28T10:56:16.768Z,33.4
2018-07-28T10:57:18.831Z,33.2
2018-07-28T10:58:21.168Z,33.3
2018-07-28T10:59:23.236Z,32.9
2018-07-28T11:00:25.742Z,32.9
2018-07-28T11:01:27.792Z,33
2018-07-28T11:02:29.841Z,32.8
2018-07-28T11:03:31.910Z,33
2018-07-28T11:04:34.287Z,33.5
2018-07-28T11:05:36.354Z,33.5
2018-07-28T11:06:38.400Z,33.4
2018-07-28T11:07:40.472Z,33.4
2018-07-28T11:08:42.532Z,33.3
2018-07-28T11:09:44.590Z,33.3
2018-07-28T11:10:46.654Z,33.2
2018-07-28T11:11:48.732Z,32.9
2018-07-28T11:12:50.796Z,33
2018-07-28T11:13:52.862Z,33.1
2018-07-28T11:14:54.918Z,33
2018-07-28T11:15:56.970Z,33.1
2018-07-28T11:16:59.031Z,33
2018-07-28T11:18:01.094Z,33
2018-07-28T11:19:03.760Z,33.2
2018-07-28T11:20:06.082Z,33.3
2018-07-28T11:21:08.141Z,33.5
2018-07-28T11:22:10.203Z,33.3
2018-07-28T11:23:12.276Z,33.6
2018-07-28T11:24:14.333Z,33.7
2018-07-28T11:25:16.681Z,33.6
2018-07-28T11:26:19.251Z,33.9
2018-07-28T11:27:21.286Z,33.6
2018-07-28T11:28:23.627Z,33.6
2018-07-28T11:29:25.688Z,33.5
2018-07-28T11:30:27.746Z,33.5
2018-07-28T11:31:29.803Z,33.8
2018-07-28T11:32:31.869Z,33.8
2018-07-28T11:33:33.929Z,33.8
2018-07-28T11:34:36.282Z,33.8
2018-07-28T11:35:38.331Z,33.8
2018-07-28T11:36:40.683Z,33.9
2018-07-28T11:37:42.762Z,34.3
2018-07-28T11:38:45.124Z,34.3
2018-07-28T11:39:47.223Z,34.3
2018-07-28T11:40:49.570Z,33.8
2018-07-28T11:41:51.659Z,33.9
2018-07-28T11:42:54.119Z,34.2
2018-07-28T11:43:56.213Z,34.3
2018-07-28T11:44:58.285Z,34.3
2018-07-28T11:46:00.828Z,34
2018-07-28T11:47:02.800Z,34.2
2018-07-28T11:48:05.246Z,34.1
2018-07-28T11:49:07.300Z,34
2018-07-28T11:50:09.364Z,34
2018-07-28T11:51:11.740Z,33.9
2018-07-28T11:52:13.769Z,33.9
2018-07-28T11:53:15.848Z,34
2018-07-28T11:54:17.908Z,34
2018-07-28T11:55:19.967Z,34.2
2018-07-28T11:56:22.332Z,34.5
2018-07-28T11:57:24.390Z,34.1
2018-07-28T11:58:26.603Z,34.4
2018-07-28T11:59:28.507Z,34.4
2018-07-28T12:00:30.578Z,34.1
2018-07-28T12:01:32.632Z,33.9
2018-07-28T12:02:35.423Z,34.1
2018-07-28T12:03:37.486Z,34.4
2018-07-28T12:04:39.534Z,34.7
2018-07-28T12:05:41.609Z,34.2
2018-07-28T12:06:43.981Z,34.5
2018-07-28T12:07:46.043Z,34.9
2018-07-28T12:08:48.393Z,34.7
2018-07-28T12:09:50.463Z,34.4
2018-07-28T12:10:52.529Z,34
2018-07-28T12:11:54.584Z,34.3
2018-07-28T12:12:56.655Z,34.1
2018-07-28T12:13:58.713Z,34.5
2018-07-28T12:15:00.776Z,34.4
2018-07-28T12:16:03.231Z,34.2
2018-07-28T12:17:05.576Z,34.4
2018-07-28T12:18:07.666Z,34.2
2018-07-28T12:19:09.698Z,34.3
2018-07-28T12:20:11.757Z,34.3
2018-07-28T12:21:14.109Z,34.6
2018-07-28T12:22:16.162Z,34.5
2018-07-28T12:23:18.215Z,34.5
2018-07-28T12:24:20.280Z,34.3
2018-07-28T12:25:22.330Z,34.4
2018-07-28T12:26:24.396Z,35
2018-07-28T12:27:26.456Z,34.8
2018-07-28T12:28:28.810Z,34.7
2018-07-28T12:29:30.882Z,34.6
2018-07-28T12:30:32.937Z,34.5
2018-07-28T12:31:35.000Z,34.4
2018-07-28T12:32:37.053Z,34.5
2018-07-28T12:33:39.512Z,34.3
2018-07-28T12:34:42.655Z,34.7
2018-07-28T12:35:44.906Z,34.7
2018-07-28T12:36:47.354Z,34.3
2018-07-28T12:37:49.415Z,34.2
2018-07-28T12:38:51.478Z,34.1
2018-07-28T12:39:53.541Z,34.6
2018-07-28T12:40:55.968Z,34.5
2018-07-28T12:41:58.005Z,34.7
2018-07-28T12:43:00.076Z,34.9
2018-07-28T12:44:02.425Z,34.8
2018-07-28T12:45:04.481Z,34.8
2018-07-28T12:46:06.556Z,34.7
2018-07-28T12:47:08.602Z,34.8
2018-07-28T12:48:10.672Z,35
2018-07-28T12:49:12.738Z,35
2018-07-28T12:50:14.804Z,35.1
2018-07-28T12:51:16.856Z,35.4
2018-07-28T12:52:18.915Z,35.4
2018-07-28T12:53:20.976Z,35.7
2018-07-28T12:54:23.040Z,35.5
2018-07-28T12:55:25.174Z,35.2
2018-07-28T12:56:27.173Z,35.2
2018-07-28T12:57:29.229Z,34.9
2018-07-28T12:58:31.302Z,35
2018-07-28T12:59:33.362Z,35.1
2018-07-28T13:00:35.444Z,35.1
2018-07-28T13:01:37.816Z,35.2
2018-07-28T13:02:39.901Z,34.9
2018-07-28T13:03:42.271Z,34.8
2018-07-28T13:04:44.354Z,34.8
2018-07-28T13:05:46.440Z,34.8
2018-07-28T13:06:48.523Z,34.9
2018-07-28T13:07:50.605Z,35
2018-07-28T13:08:52.980Z,35.4
2018-07-28T13:09:55.172Z,35.2
2018-07-28T13:10:57.149Z,35.1
2018-07-28T13:11:59.230Z,34.8
2018-07-28T13:13:01.311Z,35.3
2018-07-28T13:14:03.686Z,35.2
2018-07-28T13:15:05.770Z,35.4
2018-07-28T13:16:07.851Z,35.3
2018-07-28T13:17:09.992Z,35.3
2018-07-28T13:18:12.428Z,35.4
2018-07-28T13:19:14.516Z,35.3
2018-07-28T13:20:16.601Z,35.2
2018-07-28T13:21:18.683Z,34.7
2018-07-28T13:22:20.772Z,34.4
2018-07-28T13:23:22.864Z,34.5
2018-07-28T13:24:24.945Z,34.6
2018-07-28T13:25:27.031Z,34.8
2018-07-28T13:26:29.115Z,34.8
2018-07-28T13:27:31.487Z,34.7
2018-07-28T13:28:33.573Z,34.8
2018-07-28T13:29:35.655Z,34.6
2018-07-28T13:30:37.738Z,34.9
2018-07-28T13:31:39.822Z,35
2018-07-28T13:32:41.906Z,35.2
2018-07-28T13:33:44.275Z,35.3
2018-07-28T13:34:46.369Z,35.3
2018-07-28T13:35:48.758Z,35.4
2018-07-28T13:36:50.830Z,35.3
2018-07-28T13:37:52.911Z,35.5
2018-07-28T13:38:54.995Z,35.3
2018-07-28T13:39:57.081Z,34.7
2018-07-28T13:40:59.452Z,34.5
2018-07-28T13:42:01.596Z,34.6
2018-07-28T13:43:03.618Z,34.8
2018-07-28T13:44:05.711Z,34.3
2018-07-28T13:45:07.796Z,34.5
2018-07-28T13:46:09.880Z,34.1
2018-07-28T13:47:11.966Z,33.9
2018-07-28T13:48:14.053Z,33.6
2018-07-28T13:49:16.136Z,33.6
2018-07-28T13:50:18.223Z,33.9
2018-07-28T13:51:20.305Z,33.6
2018-07-28T13:52:22.392Z,33.7
2018-07-28T13:53:24.900Z,33.8
2018-07-28T13:54:27.339Z,33.9
2018-07-28T13:55:29.810Z,34.3